sensor_id;sensor_type;location;lat;lon;timestamp;pressure;altitude;pressure_sealevel;temperature;humidity
19096;BME280;9680;52.520;13.332;2023-08-24T00:00:19;101556.19;;;20.22;64.56
19096;BME280;9680;52.520;13.332;2023-08-24T00:02:46;101561.56;;;20.21;64.75
19096;BME280;9680;52.520;13.332;2023-08-24T00:05:13;101559.97;;;20.18;65.02
19096;BME280;9680;52.520;13.332;2023-08-24T00:07:40;101555.72;;;20.16;65.15
19096;BME280;9680;52.520;13.332;2023-08-24T00:10:07;101558.38;;;20.16;65.46
19096;BME280;9680;52.520;13.332;2023-08-24T00:12:34;101560.25;;;20.14;66.00
19096;BME280;9680;52.520;13.332;2023-08-24T00:15:01;101558.56;;;20.13;66.06
19096;BME280;9680;52.520;13.332;2023-08-24T00:17:31;101558.69;;;20.11;66.07
19096;BME280;9680;52.520;13.332;2023-08-24T00:19:58;101559.72;;;20.08;66.39
19096;BME280;9680;52.520;13.332;2023-08-24T00:22:24;101557.06;;;20.08;66.43
19096;BME280;9680;52.520;13.332;2023-08-24T00:24:51;101553.47;;;20.10;66.33
19096;BME280;9680;52.520;13.332;2023-08-24T00:27:18;101540.38;;;20.08;66.04
19096;BME280;9680;52.520;13.332;2023-08-24T00:29:46;101546.50;;;20.08;66.12
19096;BME280;9680;52.520;13.332;2023-08-24T00:32:13;101544.72;;;20.09;66.03
19096;BME280;9680;52.520;13.332;2023-08-24T00:34:41;101543.09;;;20.06;66.03
19096;BME280;9680;52.520;13.332;2023-08-24T00:37:08;101546.81;;;20.04;65.97
19096;BME280;9680;52.520;13.332;2023-08-24T00:39:34;101547.84;;;20.01;65.91
19096;BME280;9680;52.520;13.332;2023-08-24T00:42:01;101546.47;;;19.96;66.09
19096;BME280;9680;52.520;13.332;2023-08-24T00:44:29;101549.19;;;19.94;66.38
19096;BME280;9680;52.520;13.332;2023-08-24T00:46:57;101539.56;;;19.93;66.43
19096;BME280;9680;52.520;13.332;2023-08-24T00:49:25;101545.72;;;19.93;66.22
19096;BME280;9680;52.520;13.332;2023-08-24T00:51:53;101543.16;;;19.92;66.11
19096;BME280;9680;52.520;13.332;2023-08-24T00:54:21;101537.88;;;19.92;66.23
19096;BME280;9680;52.520;13.332;2023-08-24T00:56:47;101540.63;;;19.90;66.24
19096;BME280;9680;52.520;13.332;2023-08-24T00:59:14;101537.88;;;19.92;66.54
19096;BME280;9680;52.520;13.332;2023-08-24T01:01:44;101533.47;;;19.92;66.60
19096;BME280;9680;52.520;13.332;2023-08-24T01:04:12;101534.84;;;19.98;66.60
19096;BME280;9680;52.520;13.332;2023-08-24T01:06:39;101535.16;;;20.06;66.67
19096;BME280;9680;52.520;13.332;2023-08-24T01:09:08;101526.00;;;20.12;66.74
19096;BME280;9680;52.520;13.332;2023-08-24T01:11:45;101527.78;;;20.12;67.32
19096;BME280;9680;52.520;13.332;2023-08-24T01:14:21;101534.75;;;20.13;67.54
19096;BME280;9680;52.520;13.332;2023-08-24T01:16:50;101527.56;;;20.15;67.43
19096;BME280;9680;52.520;13.332;2023-08-24T01:19:36;101530.97;;;20.17;67.77
19096;BME280;9680;52.520;13.332;2023-08-24T01:22:08;101522.09;;;20.18;67.53
19096;BME280;9680;52.520;13.332;2023-08-24T01:24:44;101533.41;;;20.20;67.67
19096;BME280;9680;52.520;13.332;2023-08-24T01:27:14;101534.06;;;20.23;67.51
19096;BME280;9680;52.520;13.332;2023-08-24T01:29:41;101526.03;;;20.25;67.30
19096;BME280;9680;52.520;13.332;2023-08-24T01:32:09;101529.31;;;20.29;67.26
19096;BME280;9680;52.520;13.332;2023-08-24T01:34:37;101536.00;;;20.34;67.52
19096;BME280;9680;52.520;13.332;2023-08-24T01:37:05;101532.09;;;20.40;67.31
19096;BME280;9680;52.520;13.332;2023-08-24T01:39:38;101525.00;;;20.41;67.02
19096;BME280;9680;52.520;13.332;2023-08-24T01:42:10;101529.13;;;20.45;67.10
19096;BME280;9680;52.520;13.332;2023-08-24T01:44:48;101535.38;;;20.44;67.01
19096;BME280;9680;52.520;13.332;2023-08-24T01:47:17;101529.13;;;20.45;66.72
19096;BME280;9680;52.520;13.332;2023-08-24T01:49:44;101538.78;;;20.46;66.62
19096;BME280;9680;52.520;13.332;2023-08-24T01:52:12;101537.91;;;20.45;66.19
19096;BME280;9680;52.520;13.332;2023-08-24T01:54:40;101535.25;;;20.45;66.33
19096;BME280;9680;52.520;13.332;2023-08-24T01:57:07;101534.50;;;20.43;66.10
19096;BME280;9680;52.520;13.332;2023-08-24T01:59:33;101525.97;;;20.40;65.91
19096;BME280;9680;52.520;13.332;2023-08-24T02:02:02;101523.53;;;20.36;65.72
19096;BME280;9680;52.520;13.332;2023-08-24T02:04:29;101524.56;;;20.34;65.83
19096;BME280;9680;52.520;13.332;2023-08-24T02:06:56;101516.53;;;20.35;65.77
19096;BME280;9680;52.520;13.332;2023-08-24T02:09:23;101521.50;;;20.40;65.70
19096;BME280;9680;52.520;13.332;2023-08-24T02:11:51;101518.66;;;20.43;65.32
19096;BME280;9680;52.520;13.332;2023-08-24T02:14:18;101520.13;;;20.47;64.87
19096;BME280;9680;52.520;13.332;2023-08-24T02:16:45;101522.69;;;20.49;64.70
19096;BME280;9680;52.520;13.332;2023-08-24T02:19:13;101523.44;;;20.51;64.71
19096;BME280;9680;52.520;13.332;2023-08-24T02:21:40;101523.22;;;20.54;64.55
19096;BME280;9680;52.520;13.332;2023-08-24T02:24:06;101521.31;;;20.56;64.47
19096;BME280;9680;52.520;13.332;2023-08-24T02:26:33;101510.63;;;20.58;64.42
19096;BME280;9680;52.520;13.332;2023-08-24T02:29:00;101520.88;;;20.62;64.51
19096;BME280;9680;52.520;13.332;2023-08-24T02:31:28;101519.72;;;20.66;64.46
19096;BME280;9680;52.520;13.332;2023-08-24T02:33:55;101530.00;;;20.71;64.36
19096;BME280;9680;52.520;13.332;2023-08-24T02:36:23;101521.00;;;20.74;64.17
19096;BME280;9680;52.520;13.332;2023-08-24T02:38:50;101520.59;;;20.80;64.24
19096;BME280;9680;52.520;13.332;2023-08-24T02:41:17;101520.50;;;20.82;64.19
19096;BME280;9680;52.520;13.332;2023-08-24T02:43:44;101512.34;;;20.85;64.24
19096;BME280;9680;52.520;13.332;2023-08-24T02:46:11;101516.69;;;20.86;64.43
19096;BME280;9680;52.520;13.332;2023-08-24T02:48:38;101506.94;;;20.86;64.26
19096;BME280;9680;52.520;13.332;2023-08-24T02:51:06;101520.16;;;20.86;64.30
19096;BME280;9680;52.520;13.332;2023-08-24T02:53:34;101516.69;;;20.86;64.46
19096;BME280;9680;52.520;13.332;2023-08-24T02:56:01;101513.09;;;20.87;64.53
19096;BME280;9680;52.520;13.332;2023-08-24T02:58:27;101510.44;;;20.87;64.38
19096;BME280;9680;52.520;13.332;2023-08-24T03:00:54;101509.72;;;20.85;64.60
19096;BME280;9680;52.520;13.332;2023-08-24T03:03:22;101512.22;;;20.86;64.76
19096;BME280;9680;52.520;13.332;2023-08-24T03:05:54;101502.59;;;20.85;64.82
19096;BME280;9680;52.520;13.332;2023-08-24T03:08:21;101511.50;;;20.84;64.94
19096;BME280;9680;52.520;13.332;2023-08-24T03:10:49;101510.97;;;20.79;65.17
19096;BME280;9680;52.520;13.332;2023-08-24T03:13:16;101510.19;;;20.77;65.16
19096;BME280;9680;52.520;13.332;2023-08-24T03:15:43;101516.34;;;20.77;65.36
19096;BME280;9680;52.520;13.332;2023-08-24T03:18:11;101520.78;;;20.77;65.30
19096;BME280;9680;52.520;13.332;2023-08-24T03:20:38;101515.50;;;20.77;65.32
19096;BME280;9680;52.520;13.332;2023-08-24T03:23:05;101509.38;;;20.76;65.17
19096;BME280;9680;52.520;13.332;2023-08-24T03:25:35;101511.06;;;20.77;65.10
19096;BME280;9680;52.520;13.332;2023-08-24T03:28:05;101508.50;;;20.76;65.09
19096;BME280;9680;52.520;13.332;2023-08-24T03:30:32;101519.09;;;20.76;65.07
19096;BME280;9680;52.520;13.332;2023-08-24T03:32:59;101515.59;;;20.75;64.97
19096;BME280;9680;52.520;13.332;2023-08-24T03:35:26;101511.28;;;20.74;64.93
19096;BME280;9680;52.520;13.332;2023-08-24T03:37:53;101498.88;;;20.75;64.63
19096;BME280;9680;52.520;13.332;2023-08-24T03:40:20;101499.72;;;20.75;64.52
19096;BME280;9680;52.520;13.332;2023-08-24T03:42:46;101496.22;;;20.75;64.40
19096;BME280;9680;52.520;13.332;2023-08-24T03:45:15;101491.88;;;20.74;64.20
19096;BME280;9680;52.520;13.332;2023-08-24T03:47:44;101495.38;;;20.74;63.97
19096;BME280;9680;52.520;13.332;2023-08-24T03:50:10;101492.84;;;20.73;64.14
19096;BME280;9680;52.520;13.332;2023-08-24T03:52:37;101495.38;;;20.74;63.87
19096;BME280;9680;52.520;13.332;2023-08-24T03:55:06;101498.13;;;20.73;63.47
19096;BME280;9680;52.520;13.332;2023-08-24T03:57:33;101492.84;;;20.73;63.29
19096;BME280;9680;52.520;13.332;2023-08-24T04:00:01;101494.53;;;20.74;63.36
19096;BME280;9680;52.520;13.332;2023-08-24T04:02:40;101487.44;;;20.74;63.01
19096;BME280;9680;52.520;13.332;2023-08-24T04:05:10;101489.22;;;20.74;62.88
19096;BME280;9680;52.520;13.332;2023-08-24T04:07:37;101489.34;;;20.72;62.78
19096;BME280;9680;52.520;13.332;2023-08-24T04:10:07;101491.03;;;20.73;62.65
19096;BME280;9680;52.520;13.332;2023-08-24T04:12:34;101494.53;;;20.74;62.54
19096;BME280;9680;52.520;13.332;2023-08-24T04:15:01;101489.13;;;20.75;62.66
19096;BME280;9680;52.520;13.332;2023-08-24T04:17:28;101489.97;;;20.76;62.64
19096;BME280;9680;52.520;13.332;2023-08-24T04:19:56;101489.78;;;20.79;62.41
19096;BME280;9680;52.520;13.332;2023-08-24T04:22:23;101488.84;;;20.80;62.15
19096;BME280;9680;52.520;13.332;2023-08-24T04:24:49;101497.63;;;20.80;62.16
19096;BME280;9680;52.520;13.332;2023-08-24T04:27:16;101484.19;;;20.84;62.25
19096;BME280;9680;52.520;13.332;2023-08-24T04:29:43;101493.09;;;20.83;62.21
19096;BME280;9680;52.520;13.332;2023-08-24T04:32:09;101486.94;;;20.82;62.32
19096;BME280;9680;52.520;13.332;2023-08-24T04:34:36;101489.47;;;20.84;62.28
19096;BME280;9680;52.520;13.332;2023-08-24T04:37:05;101490.44;;;20.83;62.23
19096;BME280;9680;52.520;13.332;2023-08-24T04:39:32;101487.88;;;20.81;62.39
19096;BME280;9680;52.520;13.332;2023-08-24T04:41:59;101493.16;;;20.81;62.36
19096;BME280;9680;52.520;13.332;2023-08-24T04:44:26;101500.47;;;20.77;62.28
19096;BME280;9680;52.520;13.332;2023-08-24T04:46:53;101492.63;;;20.76;62.50
19096;BME280;9680;52.520;13.332;2023-08-24T04:49:19;101493.56;;;20.75;62.26
19096;BME280;9680;52.520;13.332;2023-08-24T04:51:46;101489.34;;;20.72;62.16
19096;BME280;9680;52.520;13.332;2023-08-24T04:54:14;101493.91;;;20.70;62.36
19096;BME280;9680;52.520;13.332;2023-08-24T04:56:41;101497.59;;;20.67;62.61
19096;BME280;9680;52.520;13.332;2023-08-24T04:59:08;101503.00;;;20.66;62.78
19096;BME280;9680;52.520;13.332;2023-08-24T05:01:36;101506.28;;;20.70;62.69
19096;BME280;9680;52.520;13.332;2023-08-24T05:04:03;101508.50;;;20.76;62.60
19096;BME280;9680;52.520;13.332;2023-08-24T05:06:29;101507.16;;;20.83;62.67
19096;BME280;9680;52.520;13.332;2023-08-24T05:08:56;101508.09;;;20.95;62.40
19096;BME280;9680;52.520;13.332;2023-08-24T05:11:27;101502.16;;;21.04;62.19
19096;BME280;9680;52.520;13.332;2023-08-24T05:13:54;101499.81;;;21.13;61.88
19096;BME280;9680;52.520;13.332;2023-08-24T05:16:21;101495.66;;;21.21;61.75
19096;BME280;9680;52.520;13.332;2023-08-24T05:18:48;101499.56;;;21.29;61.44
19096;BME280;9680;52.520;13.332;2023-08-24T05:21:15;101492.25;;;21.32;61.20
19096;BME280;9680;52.520;13.332;2023-08-24T05:23:41;101497.94;;;21.39;60.77
19096;BME280;9680;52.520;13.332;2023-08-24T05:26:08;101501.09;;;21.44;61.08
19096;BME280;9680;52.520;13.332;2023-08-24T05:28:36;101496.44;;;21.48;61.06
19096;BME280;9680;52.520;13.332;2023-08-24T05:31:03;101498.41;;;21.57;61.06
19096;BME280;9680;52.520;13.332;2023-08-24T05:33:29;101503.31;;;21.63;60.71
19096;BME280;9680;52.520;13.332;2023-08-24T05:35:58;101506.47;;;21.68;60.50
19096;BME280;9680;52.520;13.332;2023-08-24T05:38:25;101504.44;;;21.72;60.29
19096;BME280;9680;52.520;13.332;2023-08-24T05:40:51;101508.66;;;21.75;60.13
19096;BME280;9680;52.520;13.332;2023-08-24T05:43:18;101506.41;;;21.81;60.04
19096;BME280;9680;52.520;13.332;2023-08-24T05:45:47;101503.22;;;21.89;60.03
19096;BME280;9680;52.520;13.332;2023-08-24T05:48:14;101496.94;;;21.90;59.67
19096;BME280;9680;52.520;13.332;2023-08-24T05:50:44;101504.16;;;21.88;59.56
19096;BME280;9680;52.520;13.332;2023-08-24T05:53:11;101506.81;;;21.88;59.40
19096;BME280;9680;52.520;13.332;2023-08-24T05:55:38;101501.72;;;21.85;59.64
19096;BME280;9680;52.520;13.332;2023-08-24T05:58:05;101509.81;;;21.84;59.39
19096;BME280;9680;52.520;13.332;2023-08-24T06:00:32;101500.03;;;21.84;59.51
19096;BME280;9680;52.520;13.332;2023-08-24T06:03:01;101506.50;;;21.80;59.80
19096;BME280;9680;52.520;13.332;2023-08-24T06:05:29;101503.75;;;21.81;59.92
19096;BME280;9680;52.520;13.332;2023-08-24T06:07:56;101498.47;;;21.81;59.64
19096;BME280;9680;52.520;13.332;2023-08-24T06:10:23;101497.28;;;21.86;59.75
19096;BME280;9680;52.520;13.332;2023-08-24T06:12:51;101495.84;;;21.93;59.51
19096;BME280;9680;52.520;13.332;2023-08-24T06:15:18;101507.94;;;21.97;59.06
19096;BME280;9680;52.520;13.332;2023-08-24T06:17:46;101511.72;;;22.06;58.92
19096;BME280;9680;52.520;13.332;2023-08-24T06:20:14;101504.00;;;22.14;58.80
19096;BME280;9680;52.520;13.332;2023-08-24T06:22:41;101505.00;;;22.24;58.49
19096;BME280;9680;52.520;13.332;2023-08-24T06:25:08;101507.81;;;22.34;58.26
19096;BME280;9680;52.520;13.332;2023-08-24T06:27:36;101505.28;;;22.44;57.80
19096;BME280;9680;52.520;13.332;2023-08-24T06:30:03;101494.94;;;22.52;57.66
19096;BME280;9680;52.520;13.332;2023-08-24T06:32:30;101496.19;;;22.60;57.36
19096;BME280;9680;52.520;13.332;2023-08-24T06:34:57;101500.16;;;22.65;57.05
19096;BME280;9680;52.520;13.332;2023-08-24T06:37:25;101498.00;;;22.71;57.01
19096;BME280;9680;52.520;13.332;2023-08-24T06:39:51;101495.59;;;22.79;56.85
19096;BME280;9680;52.520;13.332;2023-08-24T06:42:18;101500.19;;;22.88;56.69
19096;BME280;9680;52.520;13.332;2023-08-24T06:44:47;101500.19;;;23.00;56.47
19096;BME280;9680;52.520;13.332;2023-08-24T06:47:15;101499.47;;;23.09;56.15
19096;BME280;9680;52.520;13.332;2023-08-24T06:49:42;101500.66;;;23.16;55.82
19096;BME280;9680;52.520;13.332;2023-08-24T06:52:08;101507.41;;;23.20;55.52
19096;BME280;9680;52.520;13.332;2023-08-24T06:54:36;101509.63;;;23.26;55.57
19096;BME280;9680;52.520;13.332;2023-08-24T06:57:03;101508.41;;;23.31;55.22
19096;BME280;9680;52.520;13.332;2023-08-24T06:59:30;101511.66;;;23.34;55.18
19096;BME280;9680;52.520;13.332;2023-08-24T07:01:57;101514.81;;;23.39;55.00
19096;BME280;9680;52.520;13.332;2023-08-24T07:04:24;101516.97;;;23.46;55.20
19096;BME280;9680;52.520;13.332;2023-08-24T07:06:51;101514.63;;;23.52;54.99
19096;BME280;9680;52.520;13.332;2023-08-24T07:09:19;101518.50;;;23.60;54.87
19096;BME280;9680;52.520;13.332;2023-08-24T07:11:47;101518.00;;;23.66;54.56
19096;BME280;9680;52.520;13.332;2023-08-24T07:14:14;101518.00;;;23.66;54.42
19096;BME280;9680;52.520;13.332;2023-08-24T07:16:41;101514.59;;;23.75;54.40
19096;BME280;9680;52.520;13.332;2023-08-24T07:19:07;101514.19;;;23.80;54.02
19096;BME280;9680;52.520;13.332;2023-08-24T07:21:34;101515.50;;;23.85;54.03
19096;BME280;9680;52.520;13.332;2023-08-24T07:24:01;101510.03;;;23.98;53.88
19096;BME280;9680;52.520;13.332;2023-08-24T07:26:28;101514.00;;;24.04;53.27
19096;BME280;9680;52.520;13.332;2023-08-24T07:28:57;101515.13;;;24.02;53.06
19096;BME280;9680;52.520;13.332;2023-08-24T07:31:23;101506.88;;;24.05;53.08
19096;BME280;9680;52.520;13.332;2023-08-24T07:33:50;101504.03;;;24.18;52.90
19096;BME280;9680;52.520;13.332;2023-08-24T07:36:17;101498.50;;;24.31;52.85
19096;BME280;9680;52.520;13.332;2023-08-24T07:38:44;101495.66;;;24.43;52.61
19096;BME280;9680;52.520;13.332;2023-08-24T07:41:11;101489.41;;;24.54;52.30
19096;BME280;9680;52.520;13.332;2023-08-24T07:43:38;101485.50;;;24.58;52.16
19096;BME280;9680;52.520;13.332;2023-08-24T07:46:06;101498.16;;;24.66;51.91
19096;BME280;9680;52.520;13.332;2023-08-24T07:48:33;101505.09;;;24.79;51.76
19096;BME280;9680;52.520;13.332;2023-08-24T07:51:00;101500.16;;;24.95;51.66
19096;BME280;9680;52.520;13.332;2023-08-24T07:53:26;101499.63;;;25.11;51.11
19096;BME280;9680;52.520;13.332;2023-08-24T07:55:53;101495.19;;;25.22;50.85
19096;BME280;9680;52.520;13.332;2023-08-24T07:58:21;101494.34;;;25.31;50.45
19096;BME280;9680;52.520;13.332;2023-08-24T08:00:49;101493.56;;;25.50;50.16
19096;BME280;9680;52.520;13.332;2023-08-24T08:03:17;101478.84;;;25.66;49.64
19096;BME280;9680;52.520;13.332;2023-08-24T08:05:44;101489.53;;;25.85;49.59
19096;BME280;9680;52.520;13.332;2023-08-24T08:08:11;101494.41;;;26.00;48.80
19096;BME280;9680;52.520;13.332;2023-08-24T08:10:37;101492.75;;;26.09;48.59
19096;BME280;9680;52.520;13.332;2023-08-24T08:13:04;101498.50;;;26.14;48.60
19096;BME280;9680;52.520;13.332;2023-08-24T08:15:31;101499.78;;;26.20;48.23
19096;BME280;9680;52.520;13.332;2023-08-24T08:17:57;101491.88;;;26.38;48.49
19096;BME280;9680;52.520;13.332;2023-08-24T08:20:26;101484.91;;;26.65;47.24
19096;BME280;9680;52.520;13.332;2023-08-24T08:22:52;101478.38;;;26.87;47.11
19096;BME280;9680;52.520;13.332;2023-08-24T08:25:19;101489.97;;;27.06;46.78
19096;BME280;9680;52.520;13.332;2023-08-24T08:27:47;101480.25;;;27.04;46.04
19096;BME280;9680;52.520;13.332;2023-08-24T08:30:14;101482.16;;;26.94;45.87
19096;BME280;9680;52.520;13.332;2023-08-24T08:32:41;101478.53;;;26.85;45.95
19096;BME280;9680;52.520;13.332;2023-08-24T08:35:08;101472.38;;;26.65;46.32
19096;BME280;9680;52.520;13.332;2023-08-24T08:37:36;101453.88;;;26.54;46.24
19096;BME280;9680;52.520;13.332;2023-08-24T08:40:04;101460.50;;;26.50;46.33
19096;BME280;9680;52.520;13.332;2023-08-24T08:42:32;101459.81;;;26.38;46.32
19096;BME280;9680;52.520;13.332;2023-08-24T08:45:02;101464.06;;;26.30;46.76
19096;BME280;9680;52.520;13.332;2023-08-24T08:47:30;101458.03;;;26.28;46.82
19096;BME280;9680;52.520;13.332;2023-08-24T08:49:58;101454.94;;;26.33;46.82
19096;BME280;9680;52.520;13.332;2023-08-24T08:52:26;101459.69;;;26.39;46.26
19096;BME280;9680;52.520;13.332;2023-08-24T08:54:54;101454.28;;;26.49;46.37
19096;BME280;9680;52.520;13.332;2023-08-24T08:57:22;101458.25;;;26.45;46.05
19096;BME280;9680;52.520;13.332;2023-08-24T08:59:49;101453.66;;;26.27;46.19
19096;BME280;9680;52.520;13.332;2023-08-24T09:02:19;101455.38;;;26.09;46.25
19096;BME280;9680;52.520;13.332;2023-08-24T09:04:47;101455.81;;;25.84;46.10
19096;BME280;9680;52.520;13.332;2023-08-24T09:07:14;101451.63;;;25.72;46.73
19096;BME280;9680;52.520;13.332;2023-08-24T09:09:42;101450.06;;;25.79;47.32
19096;BME280;9680;52.520;13.332;2023-08-24T09:12:10;101453.25;;;26.12;47.07
19096;BME280;9680;52.520;13.332;2023-08-24T09:14:37;101453.53;;;26.29;46.53
19096;BME280;9680;52.520;13.332;2023-08-24T09:17:05;101449.06;;;26.20;46.27
19096;BME280;9680;52.520;13.332;2023-08-24T09:19:32;101446.09;;;26.03;46.48
19096;BME280;9680;52.520;13.332;2023-08-24T09:22:01;101445.28;;;25.83;46.57
19096;BME280;9680;52.520;13.332;2023-08-24T09:24:32;101442.78;;;25.62;47.04
19096;BME280;9680;52.520;13.332;2023-08-24T09:26:59;101431.13;;;25.53;47.32
19096;BME280;9680;52.520;13.332;2023-08-24T09:29:27;101431.66;;;25.66;47.31
19096;BME280;9680;52.520;13.332;2023-08-24T09:32:02;101428.56;;;25.81;46.74
19096;BME280;9680;52.520;13.332;2023-08-24T09:34:29;101429.72;;;25.88;46.51
19096;BME280;9680;52.520;13.332;2023-08-24T09:36:57;101420.72;;;25.89;45.86
19096;BME280;9680;52.520;13.332;2023-08-24T09:39:24;101420.69;;;25.99;46.00
19096;BME280;9680;52.520;13.332;2023-08-24T09:41:51;101410.56;;;25.93;45.79
19096;BME280;9680;52.520;13.332;2023-08-24T09:44:18;101411.97;;;25.97;45.80
19096;BME280;9680;52.520;13.332;2023-08-24T09:46:46;101418.56;;;26.02;45.69
19096;BME280;9680;52.520;13.332;2023-08-24T09:49:12;101410.53;;;26.12;45.68
19096;BME280;9680;52.520;13.332;2023-08-24T09:51:40;101403.38;;;26.23;45.68
19096;BME280;9680;52.520;13.332;2023-08-24T09:54:08;101413.47;;;26.29;45.51
19096;BME280;9680;52.520;13.332;2023-08-24T09:56:36;101396.41;;;26.40;45.80
19096;BME280;9680;52.520;13.332;2023-08-24T09:59:11;101396.38;;;26.50;45.08
19096;BME280;9680;52.520;13.332;2023-08-24T10:01:42;101395.81;;;26.46;44.81
19096;BME280;9680;52.520;13.332;2023-08-24T10:04:12;101401.75;;;26.40;43.36
19096;BME280;9680;52.520;13.332;2023-08-24T10:06:39;101395.72;;;26.38;44.35
19096;BME280;9680;52.520;13.332;2023-08-24T10:09:07;101392.34;;;26.45;44.43
19096;BME280;9680;52.520;13.332;2023-08-24T10:11:40;101391.88;;;26.50;43.79
19096;BME280;9680;52.520;13.332;2023-08-24T10:14:13;101385.38;;;26.63;44.10
19096;BME280;9680;52.520;13.332;2023-08-24T10:16:46;101382.59;;;26.54;43.61
19096;BME280;9680;52.520;13.332;2023-08-24T10:19:15;101388.63;;;26.56;43.95
19096;BME280;9680;52.520;13.332;2023-08-24T10:21:42;101387.88;;;26.64;43.74
19096;BME280;9680;52.520;13.332;2023-08-24T10:24:11;101379.34;;;26.79;44.04
19096;BME280;9680;52.520;13.332;2023-08-24T10:26:39;101387.34;;;26.88;44.24
19096;BME280;9680;52.520;13.332;2023-08-24T10:29:07;101387.59;;;26.95;44.00
19096;BME280;9680;52.520;13.332;2023-08-24T10:31:34;101385.00;;;27.03;44.03
19096;BME280;9680;52.520;13.332;2023-08-24T10:34:02;101376.22;;;27.11;43.97
19096;BME280;9680;52.520;13.332;2023-08-24T10:36:31;101383.88;;;27.24;44.11
19096;BME280;9680;52.520;13.332;2023-08-24T10:39:04;101382.44;;;27.30;43.59
19096;BME280;9680;52.520;13.332;2023-08-24T10:41:46;101375.78;;;27.34;43.68
19096;BME280;9680;52.520;13.332;2023-08-24T10:44:20;101378.34;;;27.44;43.12
19096;BME280;9680;52.520;13.332;2023-08-24T10:47:08;101381.97;;;27.53;42.97
19096;BME280;9680;52.520;13.332;2023-08-24T10:49:38;101374.50;;;27.56;42.96
19096;BME280;9680;52.520;13.332;2023-08-24T10:52:24;101374.31;;;27.58;42.61
19096;BME280;9680;52.520;13.332;2023-08-24T10:54:52;101369.81;;;27.58;41.92
19096;BME280;9680;52.520;13.332;2023-08-24T10:57:20;101367.78;;;27.52;42.10
19096;BME280;9680;52.520;13.332;2023-08-24T11:00:03;101372.47;;;27.40;41.90
19096;BME280;9680;52.520;13.332;2023-08-24T11:02:41;101369.88;;;27.48;42.54
19096;BME280;9680;52.520;13.332;2023-08-24T11:05:16;101359.81;;;27.60;42.17
19096;BME280;9680;52.520;13.332;2023-08-24T11:07:54;101357.56;;;27.74;42.21
19096;BME280;9680;52.520;13.332;2023-08-24T11:10:22;101349.13;;;27.87;41.98
19096;BME280;9680;52.520;13.332;2023-08-24T11:13:08;101338.91;;;27.90;42.33
19096;BME280;9680;52.520;13.332;2023-08-24T11:15:38;101339.63;;;28.01;42.20
19096;BME280;9680;52.520;13.332;2023-08-24T11:18:20;101330.59;;;28.02;41.99
19096;BME280;9680;52.520;13.332;2023-08-24T11:20:48;101323.94;;;28.06;42.01
19096;BME280;9680;52.520;13.332;2023-08-24T11:23:17;101326.47;;;28.08;42.04
19096;BME280;9680;52.520;13.332;2023-08-24T11:25:44;101319.41;;;27.98;41.09
19096;BME280;9680;52.520;13.332;2023-08-24T11:28:12;101323.44;;;28.02;41.58
19096;BME280;9680;52.520;13.332;2023-08-24T11:30:42;101317.41;;;28.00;41.72
19096;BME280;9680;52.520;13.332;2023-08-24T11:33:11;101304.41;;;27.79;41.55
19096;BME280;9680;52.520;13.332;2023-08-24T11:35:40;101295.69;;;27.77;41.37
19096;BME280;9680;52.520;13.332;2023-08-24T11:38:07;101305.06;;;27.81;41.42
19096;BME280;9680;52.520;13.332;2023-08-24T11:40:35;101294.50;;;27.80;41.34
19096;BME280;9680;52.520;13.332;2023-08-24T11:43:03;101287.06;;;27.91;41.70
19096;BME280;9680;52.520;13.332;2023-08-24T11:45:31;101285.09;;;28.02;42.09
19096;BME280;9680;52.520;13.332;2023-08-24T11:47:58;101277.41;;;28.07;41.62
19096;BME280;9680;52.520;13.332;2023-08-24T11:50:26;101279.88;;;28.18;41.80
19096;BME280;9680;52.520;13.332;2023-08-24T11:52:54;101268.66;;;28.31;41.76
19096;BME280;9680;52.520;13.332;2023-08-24T11:55:21;101270.56;;;28.39;41.54
19096;BME280;9680;52.520;13.332;2023-08-24T11:57:49;101271.56;;;28.46;41.56
19096;BME280;9680;52.520;13.332;2023-08-24T12:00:17;101266.41;;;28.53;41.01
19096;BME280;9680;52.520;13.332;2023-08-24T12:02:44;101263.19;;;28.49;40.79
19096;BME280;9680;52.520;13.332;2023-08-24T12:05:22;101274.91;;;28.48;40.41
19096;BME280;9680;52.520;13.332;2023-08-24T12:07:49;101260.88;;;28.55;40.81
19096;BME280;9680;52.520;13.332;2023-08-24T12:10:17;101259.03;;;28.55;40.22
19096;BME280;9680;52.520;13.332;2023-08-24T12:12:44;101273.94;;;28.58;40.24
19096;BME280;9680;52.520;13.332;2023-08-24T12:15:19;101268.06;;;28.54;40.09
19096;BME280;9680;52.520;13.332;2023-08-24T12:17:47;101256.00;;;28.50;40.61
19096;BME280;9680;52.520;13.332;2023-08-24T12:20:18;101256.84;;;28.59;40.83
19096;BME280;9680;52.520;13.332;2023-08-24T12:22:51;101248.00;;;28.58;40.32
19096;BME280;9680;52.520;13.332;2023-08-24T12:25:18;101235.09;;;28.62;40.57
19096;BME280;9680;52.520;13.332;2023-08-24T12:27:47;101241.44;;;28.61;39.99
19096;BME280;9680;52.520;13.332;2023-08-24T12:30:14;101232.41;;;28.62;39.98
19096;BME280;9680;52.520;13.332;2023-08-24T12:32:46;101244.13;;;28.69;40.28
19096;BME280;9680;52.520;13.332;2023-08-24T12:35:14;101239.63;;;28.70;39.91
19096;BME280;9680;52.520;13.332;2023-08-24T12:37:41;101243.31;;;28.60;39.23
19096;BME280;9680;52.520;13.332;2023-08-24T12:40:08;101241.09;;;28.47;40.37
19096;BME280;9680;52.520;13.332;2023-08-24T12:42:35;101236.75;;;28.55;40.40
19096;BME280;9680;52.520;13.332;2023-08-24T12:45:02;101214.31;;;28.72;40.34
19096;BME280;9680;52.520;13.332;2023-08-24T12:47:29;101213.19;;;28.83;40.53
19096;BME280;9680;52.520;13.332;2023-08-24T12:49:58;101209.69;;;28.91;40.05
19096;BME280;9680;52.520;13.332;2023-08-24T12:52:24;101208.81;;;28.99;39.73
19096;BME280;9680;52.520;13.332;2023-08-24T12:54:51;101209.00;;;29.05;39.74